createdAt,value
2022-10-30T00:01:23.457Z,10.67
2022-10-30T00:03:51.283Z,9.30
2022-10-30T00:06:18.996Z,10.60
2022-10-30T00:08:46.642Z,7.97
2022-10-30T00:11:14.539Z,6.50
2022-10-30T00:13:44.085Z,9.80
2022-10-30T00:16:13.209Z,7.63
2022-10-30T00:18:42.206Z,8.97
2022-10-30T00:21:11.533Z,10.07
2022-10-30T00:23:40.991Z,11.23
2022-10-30T00:26:08.968Z,16.43
2022-10-30T00:28:36.930Z,8.47
2022-10-30T00:31:05.940Z,8.10
2022-10-30T00:33:35.278Z,10.67
2022-10-30T00:36:02.958Z,10.53
2022-10-30T00:38:30.609Z,10.90
2022-10-30T00:40:58.354Z,10.93
2022-10-30T00:43:35.455Z,12.17
2022-10-30T00:46:08.877Z,9.27
2022-10-30T00:48:38.523Z,6.43
2022-10-30T00:51:11.620Z,12.90
2022-10-30T00:53:40.425Z,13.73
2022-10-30T00:56:10.233Z,9.47
2022-10-30T00:58:42.606Z,13.73
2022-10-30T01:01:15.338Z,9.53
2022-10-30T01:03:44.911Z,6.07
2022-10-30T01:06:16.559Z,9.63
2022-10-30T01:08:45.269Z,9.87
2022-10-30T01:11:13.489Z,12.07
2022-10-30T01:13:44.168Z,9.60
2022-10-30T01:16:26.412Z,8.40
2022-10-30T01:19:04.437Z,7.47
2022-10-30T01:21:47.032Z,12.83
2022-10-30T01:24:32.641Z,9.63
2022-10-30T01:27:15.012Z,12.67
2022-10-30T01:29:56.954Z,8.97
2022-10-30T01:32:47.769Z,9.37
2022-10-30T01:35:24.690Z,14.63
2022-10-30T01:37:58.558Z,10.27
2022-10-30T01:40:26.492Z,11.60
2022-10-30T01:42:55.530Z,8.27
2022-10-30T01:45:31.711Z,10.70
2022-10-30T01:48:20.798Z,12.50
2022-10-30T01:50:57.052Z,10.73
2022-10-30T01:53:38.152Z,9.23
2022-10-30T01:56:19.903Z,10.40
2022-10-30T01:58:57.171Z,10.10
2022-10-30T02:01:26.536Z,11.17
2022-10-30T02:03:54.435Z,9.33
2022-10-30T02:06:23.711Z,12.83
2022-10-30T02:08:51.368Z,8.53
2022-10-30T02:11:19.424Z,10.60
2022-10-30T02:13:47.144Z,9.87
2022-10-30T02:16:14.913Z,11.93
2022-10-30T02:18:42.672Z,14.60
2022-10-30T02:21:11.928Z,10.73
2022-10-30T02:23:39.620Z,9.00
2022-10-30T02:26:07.616Z,9.93
2022-10-30T02:28:35.296Z,10.90
2022-10-30T02:31:03.029Z,13.17
2022-10-30T02:33:30.714Z,10.27
2022-10-30T02:35:58.374Z,12.83
2022-10-30T02:38:27.524Z,9.73
2022-10-30T02:40:55.217Z,10.93
2022-10-30T02:43:22.867Z,9.03
2022-10-30T02:45:51.953Z,12.93
2022-10-30T02:48:19.699Z,15.90
2022-10-30T02:50:47.369Z,9.00
2022-10-30T02:53:15.041Z,7.10
2022-10-30T02:55:44.032Z,11.00
2022-10-30T02:58:11.702Z,12.03
2022-10-30T03:00:39.400Z,8.93
2022-10-30T03:03:07.091Z,13.83
2022-10-30T03:05:34.794Z,8.20
2022-10-30T03:08:02.676Z,11.33
2022-10-30T03:10:30.447Z,9.50
2022-10-30T03:12:59.744Z,11.80
2022-10-30T03:15:27.452Z,12.27
2022-10-30T03:17:55.571Z,9.90
2022-10-30T03:20:23.451Z,6.83
2022-10-30T03:22:51.192Z,7.97
2022-10-30T03:25:23.487Z,8.17
2022-10-30T03:27:51.476Z,9.67
2022-10-30T03:30:20.535Z,10.97
2022-10-30T03:32:48.210Z,9.90
2022-10-30T03:35:16.102Z,11.07
2022-10-30T03:37:43.734Z,7.53
2022-10-30T03:40:12.237Z,9.73
2022-10-30T03:42:40.897Z,9.30
2022-10-30T03:45:09.519Z,6.60
2022-10-30T03:47:40.884Z,8.97
2022-10-30T03:50:09.150Z,8.07
2022-10-30T03:52:36.897Z,10.13
2022-10-30T03:55:04.864Z,6.67
2022-10-30T03:57:32.535Z,9.83
2022-10-30T04:00:00.233Z,9.93
2022-10-30T04:02:27.947Z,8.00
2022-10-30T04:04:57.036Z,10.70
2022-10-30T04:07:24.834Z,7.30
2022-10-30T04:09:52.513Z,11.27
2022-10-30T04:12:20.157Z,10.87
2022-10-30T04:14:47.819Z,12.10
2022-10-30T04:17:15.446Z,9.03
2022-10-30T04:19:43.149Z,8.50
2022-10-30T04:22:12.387Z,15.50
2022-10-30T04:24:40.551Z,11.47
2022-10-30T04:27:08.502Z,11.77
2022-10-30T04:29:37.866Z,7.87
2022-10-30T04:34:39.396Z,7.07
2022-10-30T04:37:07.753Z,14.00
2022-10-30T04:39:40.883Z,9.03
2022-10-30T04:42:11.505Z,8.83
2022-10-30T04:44:39.137Z,11.60
2022-10-30T04:47:06.798Z,13.63
2022-10-30T04:49:34.449Z,8.70
2022-10-30T04:52:02.142Z,14.53
2022-10-30T04:54:29.826Z,11.73
2022-10-30T04:56:58.921Z,9.67
2022-10-30T04:59:26.655Z,7.53
2022-10-30T05:01:54.402Z,12.17
2022-10-30T05:04:22.497Z,8.73
2022-10-30T05:06:50.283Z,13.07
2022-10-30T05:09:17.948Z,12.37
2022-10-30T05:11:45.631Z,11.90
2022-10-30T05:14:14.717Z,7.67
2022-10-30T05:16:42.391Z,11.93
2022-10-30T05:19:10.093Z,8.40
2022-10-30T05:21:37.752Z,8.80
2022-10-30T05:24:05.899Z,10.23
2022-10-30T05:26:33.634Z,9.83
2022-10-30T05:29:01.271Z,9.07
2022-10-30T05:31:30.344Z,9.37
2022-10-30T05:33:59.623Z,8.40
2022-10-30T05:36:29.532Z,11.70
2022-10-30T05:38:57.361Z,8.53
2022-10-30T05:41:25.031Z,8.03
2022-10-30T05:43:52.690Z,10.70
2022-10-30T05:46:20.455Z,8.00
2022-10-30T05:48:49.484Z,10.30
2022-10-30T05:51:17.149Z,9.33
2022-10-30T05:53:44.789Z,9.53
2022-10-30T05:56:12.494Z,12.13
2022-10-30T05:58:40.175Z,9.90
2022-10-30T06:01:08.659Z,11.70
2022-10-30T06:03:36.428Z,11.97
2022-10-30T06:06:05.781Z,8.43
2022-10-30T06:08:33.527Z,11.80
2022-10-30T06:11:01.398Z,9.13
2022-10-30T06:13:29.073Z,12.30
2022-10-30T06:15:57.123Z,11.80
2022-10-30T06:18:24.854Z,11.03
2022-10-30T06:20:52.532Z,9.30
2022-10-30T06:23:21.558Z,9.13
2022-10-30T06:25:49.265Z,8.40
2022-10-30T06:28:16.905Z,9.63
2022-10-30T06:30:44.708Z,9.37
2022-10-30T06:33:12.386Z,11.67
2022-10-30T06:35:40.132Z,7.37
2022-10-30T06:38:08.756Z,10.43
2022-10-30T06:40:37.791Z,11.73
2022-10-30T06:43:05.455Z,9.00
2022-10-30T06:45:33.118Z,9.03
2022-10-30T06:48:01.759Z,8.77
2022-10-30T06:50:29.976Z,10.90
2022-10-30T06:52:57.735Z,9.40
2022-10-30T06:55:25.397Z,11.73
2022-10-30T06:57:58.585Z,10.80
2022-10-30T07:00:26.556Z,7.67
2022-10-30T07:02:59.137Z,14.47
2022-10-30T07:05:27.222Z,11.00
2022-10-30T07:07:59.429Z,11.20
2022-10-30T07:10:27.129Z,11.00
2022-10-30T07:12:58.899Z,9.43
2022-10-30T07:15:27.583Z,7.77
2022-10-30T07:17:57.179Z,10.67
2022-10-30T07:20:26.151Z,12.93
2022-10-30T07:22:53.909Z,15.63
2022-10-30T07:25:21.914Z,10.13
2022-10-30T07:27:51.381Z,8.27
2022-10-30T07:30:22.492Z,10.63
2022-10-30T07:32:58.196Z,12.47
2022-10-30T07:35:26.340Z,9.33
2022-10-30T07:37:54.212Z,12.60
2022-10-30T07:40:22.539Z,9.83
2022-10-30T07:42:50.234Z,10.93
2022-10-30T07:45:19.408Z,17.10
2022-10-30T07:47:51.059Z,11.47
2022-10-30T07:50:18.927Z,8.83
2022-10-30T07:52:46.705Z,17.80
2022-10-30T07:55:14.729Z,9.10
2022-10-30T07:57:43.572Z,9.63
2022-10-30T08:00:13.888Z,13.07
2022-10-30T08:02:42.219Z,10.90
2022-10-30T08:05:11.709Z,9.77
2022-10-30T08:07:39.882Z,13.13
2022-10-30T08:10:09.314Z,9.33
2022-10-30T08:12:38.283Z,9.37
2022-10-30T08:15:07.080Z,13.40
2022-10-30T08:17:41.941Z,11.27
2022-10-30T08:20:13.002Z,13.07
2022-10-30T08:22:48.100Z,13.67
2022-10-30T08:25:16.944Z,15.20
2022-10-30T08:27:56.026Z,11.63
2022-10-30T08:30:24.862Z,12.53
2022-10-30T08:32:52.679Z,11.90
2022-10-30T08:35:22.025Z,15.23
2022-10-30T08:37:49.816Z,12.40
2022-10-30T08:40:17.619Z,17.30
2022-10-30T08:42:51.739Z,10.20
2022-10-30T08:45:19.840Z,13.30
2022-10-30T08:47:47.472Z,11.73
2022-10-30T08:50:15.392Z,10.97
2022-10-30T08:52:44.469Z,14.57
2022-10-30T08:55:12.170Z,12.27
2022-10-30T08:57:39.849Z,16.00
2022-10-30T09:00:08.761Z,14.70
2022-10-30T09:02:39.346Z,14.07
2022-10-30T09:05:07.666Z,11.47
2022-10-30T09:07:35.423Z,11.53
2022-10-30T09:10:05.757Z,16.63
2022-10-30T09:12:33.487Z,14.57
2022-10-30T09:15:01.280Z,14.80
2022-10-30T09:17:29.015Z,11.43
2022-10-30T09:19:56.728Z,11.53
2022-10-30T09:22:24.736Z,12.77
2022-10-30T09:24:52.438Z,12.73
2022-10-30T09:27:21.531Z,16.00
2022-10-30T09:29:49.252Z,12.80
2022-10-30T09:32:16.900Z,14.70
2022-10-30T09:34:44.578Z,12.07
2022-10-30T09:37:12.288Z,12.20
2022-10-30T09:39:40.140Z,8.70
2022-10-30T09:42:23.786Z,12.27
2022-10-30T09:45:28.048Z,10.23
2022-10-30T09:48:10.942Z,10.17
2022-10-30T09:50:44.209Z,11.57
2022-10-30T09:53:21.305Z,13.27
2022-10-30T09:55:58.724Z,13.37
2022-10-30T09:58:36.744Z,18.10
2022-10-30T10:01:15.818Z,9.97
2022-10-30T10:03:58.337Z,10.13
2022-10-30T10:06:27.103Z,10.10
2022-10-30T10:08:59.183Z,14.10
2022-10-30T10:11:31.185Z,12.47
2022-10-30T10:14:04.777Z,9.47
2022-10-30T10:16:36.981Z,11.00
2022-10-30T10:19:11.439Z,9.53
2022-10-30T10:21:45.833Z,10.20
2022-10-30T10:24:20.013Z,9.63
2022-10-30T10:26:50.677Z,10.60
2022-10-30T10:29:34.464Z,8.60
2022-10-30T10:32:18.934Z,9.63
2022-10-30T10:34:58.702Z,11.90
2022-10-30T10:37:35.759Z,12.73
2022-10-30T10:40:23.510Z,9.50
2022-10-30T10:43:05.472Z,11.50
2022-10-30T10:45:44.104Z,12.60
2022-10-30T10:48:38.162Z,13.63
2022-10-30T10:51:09.607Z,10.60
2022-10-30T10:53:43.708Z,8.90
2022-10-30T10:56:12.232Z,10.97
2022-10-30T10:58:46.049Z,11.77
2022-10-30T11:01:18.695Z,12.23
2022-10-30T11:03:55.730Z,9.23
2022-10-30T11:06:27.187Z,8.50
2022-10-30T11:09:01.397Z,9.83
2022-10-30T11:11:29.392Z,16.73
2022-10-30T11:13:57.589Z,10.27
2022-10-30T11:16:32.313Z,9.90
2022-10-30T11:19:04.736Z,12.67
2022-10-30T11:21:35.782Z,8.83
2022-10-30T11:24:03.415Z,7.73
2022-10-30T11:26:34.314Z,11.43
2022-10-30T11:29:14.395Z,9.17
2022-10-30T11:31:43.573Z,9.33
2022-10-30T11:34:34.499Z,7.17
2022-10-30T11:37:02.333Z,7.27
2022-10-30T11:39:32.224Z,7.60
2022-10-30T11:42:04.423Z,10.40
2022-10-30T11:44:36.018Z,7.23
2022-10-30T11:47:05.226Z,10.33
2022-10-30T11:49:41.323Z,8.40
2022-10-30T11:52:10.925Z,8.60
2022-10-30T11:54:44.691Z,6.27
2022-10-30T11:57:22.258Z,9.13
2022-10-30T11:59:52.547Z,10.00
2022-10-30T12:02:23.004Z,8.10
2022-10-30T12:04:52.756Z,9.27
2022-10-30T12:07:27.815Z,8.83
2022-10-30T12:09:55.758Z,9.40
2022-10-30T12:12:28.015Z,10.40
2022-10-30T12:14:56.553Z,12.17
2022-10-30T12:17:24.821Z,9.00
2022-10-30T12:19:57.885Z,9.60
2022-10-30T12:22:32.139Z,11.13
2022-10-30T12:25:03.422Z,7.83
2022-10-30T12:27:33.167Z,10.23
2022-10-30T12:30:09.642Z,7.93
2022-10-30T12:32:45.089Z,8.73
2022-10-30T12:35:26.097Z,9.47
2022-10-30T12:37:55.848Z,7.50
2022-10-30T12:40:28.205Z,9.43
2022-10-30T12:43:03.323Z,7.93
2022-10-30T12:45:37.088Z,6.73
2022-10-30T12:48:16.528Z,8.80
2022-10-30T12:50:55.421Z,8.10
2022-10-30T12:53:34.563Z,5.83
2022-10-30T12:56:06.264Z,10.27
2022-10-30T12:58:40.391Z,6.00
2022-10-30T13:01:17.693Z,7.93
2022-10-30T13:03:52.130Z,9.37
2022-10-30T13:06:27.869Z,8.10
2022-10-30T13:09:05.460Z,12.77
2022-10-30T13:11:41.989Z,7.20
2022-10-30T13:14:15.106Z,6.30
2022-10-30T13:16:42.884Z,7.47
2022-10-30T13:19:13.742Z,5.27
2022-10-30T13:21:52.721Z,7.13
2022-10-30T13:24:28.449Z,10.87
2022-10-30T13:27:01.546Z,7.60
2022-10-30T13:29:34.418Z,7.50
2022-10-30T13:32:23.815Z,6.57
2022-10-30T13:35:02.025Z,4.50
2022-10-30T13:37:38.852Z,7.37
2022-10-30T13:40:17.348Z,7.27
2022-10-30T13:42:56.853Z,7.73
2022-10-30T13:45:43.369Z,5.07
2022-10-30T13:48:17.841Z,5.23
2022-10-30T13:51:05.204Z,6.63
2022-10-30T13:53:38.895Z,6.77
2022-10-30T13:56:07.884Z,5.10
2022-10-30T13:58:41.574Z,5.23
2022-10-30T14:01:18.862Z,6.33
2022-10-30T14:03:55.874Z,4.93
2022-10-30T14:06:33.823Z,3.80
2022-10-30T14:09:13.687Z,6.07
2022-10-30T14:11:41.373Z,6.47
2022-10-30T14:14:28.376Z,6.13
2022-10-30T14:17:12.166Z,7.60
2022-10-30T14:20:16.304Z,6.87
2022-10-30T14:22:45.046Z,6.33
2022-10-30T14:25:17.437Z,6.27
2022-10-30T14:27:56.723Z,7.00
2022-10-30T14:30:28.900Z,7.37
2022-10-30T14:32:56.834Z,6.97
2022-10-30T14:36:08.342Z,5.23
2022-10-30T14:38:36.597Z,4.67
2022-10-30T14:41:26.727Z,5.27
2022-10-30T14:44:37.521Z,5.90
2022-10-30T14:47:30.566Z,6.33
2022-10-30T14:50:02.619Z,5.17
2022-10-30T14:52:38.410Z,5.50
2022-10-30T14:55:23.348Z,7.00
2022-10-30T14:58:09.411Z,5.03
2022-10-30T15:00:42.734Z,5.73
2022-10-30T15:03:19.377Z,9.43
2022-10-30T15:05:52.664Z,5.50
2022-10-30T15:08:34.474Z,5.73
2022-10-30T15:11:21.594Z,3.73
2022-10-30T15:13:54.334Z,5.87
2022-10-30T15:16:24.738Z,8.23
2022-10-30T15:18:58.840Z,6.37
2022-10-30T15:21:29.687Z,9.73
2022-10-30T15:24:00.647Z,7.27
2022-10-30T15:26:35.656Z,3.83
2022-10-30T15:29:06.760Z,4.73
2022-10-30T15:31:34.537Z,5.57
2022-10-30T15:34:02.278Z,5.77
2022-10-30T15:36:36.334Z,7.80
2022-10-30T15:39:10.944Z,7.33
2022-10-30T15:41:44.273Z,7.60
2022-10-30T15:46:50.035Z,6.30
2022-10-30T15:49:25.629Z,4.97
2022-10-30T15:51:53.425Z,4.47
2022-10-30T15:54:22.283Z,6.70
2022-10-30T15:57:24.003Z,6.50
2022-10-30T15:59:41.395Z,8.63
2022-10-30T16:02:22.210Z,4.40
2022-10-30T16:04:50.299Z,8.70
2022-10-30T16:07:20.363Z,5.60
2022-10-30T16:09:55.668Z,5.27
2022-10-30T16:12:26.814Z,5.13
2022-10-30T16:14:57.216Z,3.57
2022-10-30T16:17:27.047Z,5.23
2022-10-30T16:19:57.947Z,6.47
2022-10-30T16:22:28.754Z,5.27
2022-10-30T16:24:57.844Z,6.73
2022-10-30T16:27:27.465Z,6.10
2022-10-30T16:29:59.257Z,5.07
2022-10-30T16:32:30.167Z,5.63
2022-10-30T16:35:00.469Z,5.83
2022-10-30T16:37:34.173Z,5.97
2022-10-30T16:40:07.540Z,5.17
2022-10-30T16:42:35.567Z,7.57
2022-10-30T16:45:40.423Z,6.00
2022-10-30T16:48:12.453Z,5.20
2022-10-30T16:50:40.391Z,6.40
2022-10-30T16:53:12.618Z,4.60
2022-10-30T16:55:40.451Z,8.27
2022-10-30T16:58:08.386Z,12.67
2022-10-30T17:00:37.908Z,4.83
2022-10-30T17:03:09.512Z,5.10
2022-10-30T17:05:38.057Z,6.87
2022-10-30T17:08:09.239Z,5.73
2022-10-30T17:10:38.897Z,4.97
2022-10-30T17:13:30.995Z,3.90
2022-10-30T17:16:01.091Z,4.20
2022-10-30T17:18:33.211Z,3.87
2022-10-30T17:21:08.186Z,3.43
2022-10-30T17:23:36.691Z,4.83
2022-10-30T17:26:09.608Z,4.80
2022-10-30T17:28:38.702Z,2.80
2022-10-30T17:31:30.799Z,4.27
2022-10-30T17:34:16.481Z,5.37
2022-10-30T17:36:44.836Z,2.37
2022-10-30T17:39:12.889Z,3.10
2022-10-30T17:41:41.289Z,3.20
2022-10-30T17:44:18.564Z,2.80
2022-10-30T17:46:47.659Z,4.10
2022-10-30T17:49:25.288Z,2.20
2022-10-30T17:51:53.267Z,2.20
2022-10-30T17:54:21.415Z,2.93
2022-10-30T17:56:49.290Z,2.20
2022-10-30T17:59:17.186Z,3.03
2022-10-30T18:01:45.136Z,4.03
2022-10-30T18:04:20.527Z,2.80
2022-10-30T18:06:49.303Z,2.80
2022-10-30T18:09:17.265Z,2.37
2022-10-30T18:11:44.956Z,3.53
2022-10-30T18:14:13.390Z,2.27
2022-10-30T18:16:41.221Z,2.77
2022-10-30T18:19:12.554Z,1.47
2022-10-30T18:21:41.652Z,3.20
2022-10-30T18:24:12.482Z,1.93
2022-10-30T18:26:40.888Z,2.37
2022-10-30T18:29:09.114Z,2.70
2022-10-30T18:31:37.272Z,2.50
2022-10-30T18:34:05.611Z,1.23
2022-10-30T18:36:33.338Z,1.93
2022-10-30T18:39:02.589Z,1.40
2022-10-30T18:41:34.794Z,2.13
2022-10-30T18:44:02.869Z,0.80
2022-10-30T18:46:32.333Z,2.57
2022-10-30T18:49:00.159Z,0.50
2022-10-30T18:51:29.188Z,1.23
2022-10-30T18:53:57.351Z,1.07
2022-10-30T18:56:27.679Z,0.57
2022-10-30T18:59:00.673Z,1.03
2022-10-30T19:01:31.066Z,0.93
2022-10-30T19:04:00.913Z,2.03
2022-10-30T19:06:29.115Z,1.27
2022-10-30T19:08:56.802Z,1.43
2022-10-30T19:11:27.492Z,4.77
2022-10-30T19:13:56.932Z,2.00
2022-10-30T19:16:25.724Z,1.67
2022-10-30T19:18:53.589Z,1.43
2022-10-30T19:21:23.103Z,2.70
2022-10-30T19:23:51.034Z,2.87
2022-10-30T19:26:18.911Z,3.33
2022-10-30T19:28:48.031Z,1.60
2022-10-30T19:31:16.985Z,0.97
2022-10-30T19:33:44.840Z,2.53
2022-10-30T19:36:27.615Z,0.80
2022-10-30T19:38:55.877Z,2.97
2022-10-30T19:41:24.917Z,1.87
2022-10-30T19:43:54.807Z,1.50
2022-10-30T19:46:22.676Z,1.40
2022-10-30T19:48:59.320Z,3.93
2022-10-30T19:51:27.705Z,2.50
2022-10-30T19:53:55.403Z,1.20
2022-10-30T19:56:23.505Z,3.93
2022-10-30T19:58:51.755Z,5.30
2022-10-30T20:01:20.921Z,1.03
2022-10-30T20:03:48.723Z,4.73
2022-10-30T20:06:16.649Z,1.23
2022-10-30T20:08:44.551Z,1.83
2022-10-30T20:11:13.418Z,1.23
2022-10-30T20:13:41.141Z,2.23
2022-10-30T20:16:08.972Z,1.70
2022-10-30T20:18:38.062Z,1.93
2022-10-30T20:21:08.761Z,1.57
2022-10-30T20:23:37.282Z,1.73
2022-10-30T20:26:07.637Z,2.77
2022-10-30T20:28:37.568Z,1.83
2022-10-30T20:31:06.196Z,3.13
2022-10-30T20:33:34.167Z,2.00
2022-10-30T20:36:03.566Z,2.03
2022-10-30T20:38:32.956Z,1.73
2022-10-30T20:41:02.510Z,3.40
2022-10-30T20:43:32.436Z,1.83
2022-10-30T20:46:00.651Z,2.17
2022-10-30T20:48:29.486Z,1.80
2022-10-30T20:50:58.961Z,1.87
2022-10-30T20:53:29.030Z,1.60
2022-10-30T20:55:56.772Z,2.83
2022-10-30T20:58:25.061Z,3.37
2022-10-30T21:00:55.247Z,1.70
2022-10-30T21:03:23.049Z,4.13
2022-10-30T21:05:57.237Z,3.03
2022-10-30T21:08:25.323Z,3.47
2022-10-30T21:10:54.441Z,3.67
2022-10-30T21:13:22.232Z,3.27
2022-10-30T21:15:51.414Z,2.83
2022-10-30T21:18:19.147Z,2.83
2022-10-30T21:20:46.913Z,2.93
2022-10-30T21:23:14.574Z,3.07
2022-10-30T21:25:42.256Z,2.20
2022-10-30T21:28:11.333Z,2.53
2022-10-30T21:30:39.037Z,1.10
2022-10-30T21:33:06.689Z,2.67
2022-10-30T21:35:35.030Z,1.93
2022-10-30T21:38:02.754Z,3.03
2022-10-30T21:40:30.509Z,3.40
2022-10-30T21:43:01.341Z,2.43
2022-10-30T21:45:33.527Z,1.47
2022-10-30T21:48:01.191Z,1.83
2022-10-30T21:50:28.879Z,4.13
2022-10-30T21:52:56.832Z,1.93
2022-10-30T21:55:24.682Z,2.83
2022-10-30T21:57:52.381Z,4.53
2022-10-30T22:00:20.175Z,2.53
2022-10-30T22:02:49.285Z,2.37
2022-10-30T22:05:17.253Z,2.20
2022-10-30T22:07:44.927Z,1.93
2022-10-30T22:10:12.575Z,2.23
2022-10-30T22:12:40.255Z,1.60
2022-10-30T22:15:08.853Z,5.87
2022-10-30T22:17:36.533Z,1.73
2022-10-30T22:20:06.340Z,1.33
2022-10-30T22:22:33.990Z,2.83
2022-10-30T22:25:01.684Z,1.03
2022-10-30T22:27:29.448Z,2.57
2022-10-30T22:29:57.159Z,2.10
2022-10-30T22:32:25.013Z,1.67
2022-10-30T22:34:52.708Z,2.77
2022-10-30T22:37:21.725Z,1.73
2022-10-30T22:39:49.465Z,2.50
2022-10-30T22:42:17.148Z,1.97
2022-10-30T22:44:44.807Z,3.63
2022-10-30T22:47:12.804Z,1.70
2022-10-30T22:49:40.510Z,1.57
2022-10-30T22:52:08.191Z,2.40
2022-10-30T22:54:37.566Z,3.73
2022-10-30T22:57:05.201Z,1.23
2022-10-30T22:59:33.123Z,1.90
2022-10-30T23:02:00.909Z,3.00
2022-10-30T23:04:28.723Z,4.00
2022-10-30T23:06:56.663Z,3.03
2022-10-30T23:09:24.317Z,1.90
2022-10-30T23:11:53.492Z,2.80
2022-10-30T23:14:21.409Z,4.27
2022-10-30T23:16:49.047Z,1.30
2022-10-30T23:19:16.891Z,1.53
2022-10-30T23:21:44.577Z,1.47
2022-10-30T23:24:12.226Z,2.20
2022-10-30T23:26:39.871Z,2.60
2022-10-30T23:29:09.003Z,1.47
2022-10-30T23:31:38.352Z,1.87
2022-10-30T23:34:08.911Z,1.47
2022-10-30T23:36:37.366Z,1.50
2022-10-30T23:39:07.561Z,3.10
2022-10-30T23:41:35.648Z,2.77
2022-10-30T23:44:05.498Z,1.50
2022-10-30T23:46:35.468Z,0.80
2022-10-30T23:49:03.326Z,2.93
2022-10-30T23:51:31.420Z,3.70
2022-10-30T23:53:59.466Z,2.30
2022-10-30T23:56:29.385Z,2.03
2022-10-30T23:58:57.303Z,1.57
